sensor_id;sensor_type;location;lat;lon;timestamp;temperature;humidity
51825;DHT22;37879;52.986;6.282;2023-12-22T00:00:44;6.20;99.90
51825;DHT22;37879;52.986;6.282;2023-12-22T00:03:13;6.20;99.90
51825;DHT22;37879;52.986;6.282;2023-12-22T00:05:39;6.10;99.90
51825;DHT22;37879;52.986;6.282;2023-12-22T00:08:05;6.20;99.90
51825;DHT22;37879;52.986;6.282;2023-12-22T00:10:31;6.30;99.90
51825;DHT22;37879;52.986;6.282;2023-12-22T00:12:57;6.10;99.90
51825;DHT22;37879;52.986;6.282;2023-12-22T00:15:22;6.20;99.90
51825;DHT22;37879;52.986;6.282;2023-12-22T00:17:48;6.10;99.90
51825;DHT22;37879;52.986;6.282;2023-12-22T00:20:14;6.10;99.90
51825;DHT22;37879;52.986;6.282;2023-12-22T00:22:40;6.10;99.90
51825;DHT22;37879;52.986;6.282;2023-12-22T00:25:06;6.10;99.90
51825;DHT22;37879;52.986;6.282;2023-12-22T00:27:33;6.10;99.90
51825;DHT22;37879;52.986;6.282;2023-12-22T00:29:59;6.10;99.90
51825;DHT22;37879;52.986;6.282;2023-12-22T00:32:25;6.10;99.90
51825;DHT22;37879;52.986;6.282;2023-12-22T00:34:51;6.10;99.90
51825;DHT22;37879;52.986;6.282;2023-12-22T00:37:16;6.00;99.90
51825;DHT22;37879;52.986;6.282;2023-12-22T00:39:42;6.00;99.90
51825;DHT22;37879;52.986;6.282;2023-12-22T00:42:08;6.00;99.90
51825;DHT22;37879;52.986;6.282;2023-12-22T00:44:34;5.90;99.90
51825;DHT22;37879;52.986;6.282;2023-12-22T00:46:59;6.00;99.90
51825;DHT22;37879;52.986;6.282;2023-12-22T00:49:25;6.00;99.90
51825;DHT22;37879;52.986;6.282;2023-12-22T00:51:51;6.00;99.90
51825;DHT22;37879;52.986;6.282;2023-12-22T00:54:16;6.10;99.90
51825;DHT22;37879;52.986;6.282;2023-12-22T00:56:42;6.20;99.90
51825;DHT22;37879;52.986;6.282;2023-12-22T00:59:08;6.00;99.90
51825;DHT22;37879;52.986;6.282;2023-12-22T01:01:33;5.80;99.90
51825;DHT22;37879;52.986;6.282;2023-12-22T01:03:59;5.80;99.90
51825;DHT22;37879;52.986;6.282;2023-12-22T01:06:25;5.80;99.90
51825;DHT22;37879;52.986;6.282;2023-12-22T01:08:50;5.80;99.90
51825;DHT22;37879;52.986;6.282;2023-12-22T01:11:19;5.90;99.90
51825;DHT22;37879;52.986;6.282;2023-12-22T01:13:45;5.90;99.90
51825;DHT22;37879;52.986;6.282;2023-12-22T01:16:10;5.90;99.90
51825;DHT22;37879;52.986;6.282;2023-12-22T01:18:36;6.00;99.90
51825;DHT22;37879;52.986;6.282;2023-12-22T01:21:02;6.10;99.90
51825;DHT22;37879;52.986;6.282;2023-12-22T01:23:28;6.10;99.90
51825;DHT22;37879;52.986;6.282;2023-12-22T01:25:53;6.10;99.90
51825;DHT22;37879;52.986;6.282;2023-12-22T01:28:19;6.10;99.90
51825;DHT22;37879;52.986;6.282;2023-12-22T01:30:45;6.10;99.90
51825;DHT22;37879;52.986;6.282;2023-12-22T01:33:10;6.00;99.90
51825;DHT22;37879;52.986;6.282;2023-12-22T01:35:36;6.00;99.90
51825;DHT22;37879;52.986;6.282;2023-12-22T01:38:02;6.00;99.90
51825;DHT22;37879;52.986;6.282;2023-12-22T01:40:28;6.00;99.90
51825;DHT22;37879;52.986;6.282;2023-12-22T01:42:53;6.10;99.90
51825;DHT22;37879;52.986;6.282;2023-12-22T01:45:19;6.10;99.90
51825;DHT22;37879;52.986;6.282;2023-12-22T01:47:46;6.20;99.90
51825;DHT22;37879;52.986;6.282;2023-12-22T01:50:12;6.20;99.90
51825;DHT22;37879;52.986;6.282;2023-12-22T01:52:40;6.20;99.90
51825;DHT22;37879;52.986;6.282;2023-12-22T01:55:10;6.20;99.90
51825;DHT22;37879;52.986;6.282;2023-12-22T01:57:37;6.20;99.90
51825;DHT22;37879;52.986;6.282;2023-12-22T02:00:04;6.10;99.90
51825;DHT22;37879;52.986;6.282;2023-12-22T02:02:30;6.10;99.90
51825;DHT22;37879;52.986;6.282;2023-12-22T02:04:57;6.10;99.90
51825;DHT22;37879;52.986;6.282;2023-12-22T02:07:24;6.10;99.90
51825;DHT22;37879;52.986;6.282;2023-12-22T02:09:49;6.10;99.90
51825;DHT22;37879;52.986;6.282;2023-12-22T02:12:15;6.10;99.90
51825;DHT22;37879;52.986;6.282;2023-12-22T02:14:41;6.20;99.90
51825;DHT22;37879;52.986;6.282;2023-12-22T02:17:11;6.20;99.90
51825;DHT22;37879;52.986;6.282;2023-12-22T02:19:43;6.20;99.90
51825;DHT22;37879;52.986;6.282;2023-12-22T02:22:11;6.20;99.90
51825;DHT22;37879;52.986;6.282;2023-12-22T02:24:41;6.10;99.90
51825;DHT22;37879;52.986;6.282;2023-12-22T02:33:04;6.20;99.90
51825;DHT22;37879;52.986;6.282;2023-12-22T02:35:33;6.30;99.90
51825;DHT22;37879;52.986;6.282;2023-12-22T02:38:00;6.30;99.90
51825;DHT22;37879;52.986;6.282;2023-12-22T02:40:27;6.30;99.90
51825;DHT22;37879;52.986;6.282;2023-12-22T02:42:53;6.30;99.90
51825;DHT22;37879;52.986;6.282;2023-12-22T02:45:19;6.30;99.90
51825;DHT22;37879;52.986;6.282;2023-12-22T02:47:45;6.40;99.90
51825;DHT22;37879;52.986;6.282;2023-12-22T02:50:16;6.40;99.90
51825;DHT22;37879;52.986;6.282;2023-12-22T02:52:42;6.30;99.90
51825;DHT22;37879;52.986;6.282;2023-12-22T02:55:08;6.20;99.90
51825;DHT22;37879;52.986;6.282;2023-12-22T02:57:34;6.20;99.90
51825;DHT22;37879;52.986;6.282;2023-12-22T03:00:00;6.20;99.90
51825;DHT22;37879;52.986;6.282;2023-12-22T03:02:26;6.10;99.90
51825;DHT22;37879;52.986;6.282;2023-12-22T03:04:51;6.00;99.90
51825;DHT22;37879;52.986;6.282;2023-12-22T03:07:17;6.00;99.90
51825;DHT22;37879;52.986;6.282;2023-12-22T03:09:43;5.80;99.90
51825;DHT22;37879;52.986;6.282;2023-12-22T03:12:10;5.80;99.90
51825;DHT22;37879;52.986;6.282;2023-12-22T03:14:36;5.80;99.90
51825;DHT22;37879;52.986;6.282;2023-12-22T03:17:03;5.70;99.90
51825;DHT22;37879;52.986;6.282;2023-12-22T03:19:30;5.70;99.90
51825;DHT22;37879;52.986;6.282;2023-12-22T03:21:55;5.60;99.90
51825;DHT22;37879;52.986;6.282;2023-12-22T03:24:23;5.60;99.90
51825;DHT22;37879;52.986;6.282;2023-12-22T03:26:49;5.60;99.90
51825;DHT22;37879;52.986;6.282;2023-12-22T03:29:15;5.90;99.90
51825;DHT22;37879;52.986;6.282;2023-12-22T03:31:41;5.40;99.90
51825;DHT22;37879;52.986;6.282;2023-12-22T03:34:07;5.40;99.90
51825;DHT22;37879;52.986;6.282;2023-12-22T03:36:33;5.40;99.90
51825;DHT22;37879;52.986;6.282;2023-12-22T03:38:59;5.30;99.90
51825;DHT22;37879;52.986;6.282;2023-12-22T03:41:24;5.30;99.90
51825;DHT22;37879;52.986;6.282;2023-12-22T03:43:50;5.30;99.90
51825;DHT22;37879;52.986;6.282;2023-12-22T03:46:16;5.30;99.90
51825;DHT22;37879;52.986;6.282;2023-12-22T03:48:41;5.30;99.90
51825;DHT22;37879;52.986;6.282;2023-12-22T03:51:07;5.40;99.90
51825;DHT22;37879;52.986;6.282;2023-12-22T03:53:33;5.50;99.90
51825;DHT22;37879;52.986;6.282;2023-12-22T03:55:59;5.50;99.90
51825;DHT22;37879;52.986;6.282;2023-12-22T03:58:24;5.50;99.90
51825;DHT22;37879;52.986;6.282;2023-12-22T04:00:51;5.60;99.90
51825;DHT22;37879;52.986;6.282;2023-12-22T04:03:17;5.70;99.90
51825;DHT22;37879;52.986;6.282;2023-12-22T04:05:43;5.70;99.90
51825;DHT22;37879;52.986;6.282;2023-12-22T04:08:09;5.70;99.90
51825;DHT22;37879;52.986;6.282;2023-12-22T04:10:34;5.80;99.90
51825;DHT22;37879;52.986;6.282;2023-12-22T04:13:00;5.90;99.90
51825;DHT22;37879;52.986;6.282;2023-12-22T04:15:26;5.90;99.90
51825;DHT22;37879;52.986;6.282;2023-12-22T04:17:51;6.00;99.90
51825;DHT22;37879;52.986;6.282;2023-12-22T04:20:17;6.00;99.90
51825;DHT22;37879;52.986;6.282;2023-12-22T04:22:43;6.00;99.90
51825;DHT22;37879;52.986;6.282;2023-12-22T04:25:08;6.00;99.90
51825;DHT22;37879;52.986;6.282;2023-12-22T04:27:35;6.00;99.90
51825;DHT22;37879;52.986;6.282;2023-12-22T04:30:01;6.00;99.90
51825;DHT22;37879;52.986;6.282;2023-12-22T04:32:27;6.10;99.90
51825;DHT22;37879;52.986;6.282;2023-12-22T04:34:52;6.40;99.90
51825;DHT22;37879;52.986;6.282;2023-12-22T04:37:18;6.20;99.90
51825;DHT22;37879;52.986;6.282;2023-12-22T04:39:44;6.20;99.90
51825;DHT22;37879;52.986;6.282;2023-12-22T04:42:09;6.20;99.90
51825;DHT22;37879;52.986;6.282;2023-12-22T04:44:35;6.30;99.90
51825;DHT22;37879;52.986;6.282;2023-12-22T04:47:01;6.30;99.90
51825;DHT22;37879;52.986;6.282;2023-12-22T04:49:27;6.20;99.90
51825;DHT22;37879;52.986;6.282;2023-12-22T04:51:52;6.10;99.90
51825;DHT22;37879;52.986;6.282;2023-12-22T04:54:18;6.10;99.90
51825;DHT22;37879;52.986;6.282;2023-12-22T04:56:44;6.20;99.90
51825;DHT22;37879;52.986;6.282;2023-12-22T04:59:09;6.10;99.90
51825;DHT22;37879;52.986;6.282;2023-12-22T05:01:35;6.20;99.90
51825;DHT22;37879;52.986;6.282;2023-12-22T05:04:01;6.20;99.90
51825;DHT22;37879;52.986;6.282;2023-12-22T05:06:28;6.20;99.90
51825;DHT22;37879;52.986;6.282;2023-12-22T05:08:56;6.20;99.90
51825;DHT22;37879;52.986;6.282;2023-12-22T05:11:22;6.20;99.90
51825;DHT22;37879;52.986;6.282;2023-12-22T05:13:48;6.20;99.90
51825;DHT22;37879;52.986;6.282;2023-12-22T05:16:14;6.20;99.90
51825;DHT22;37879;52.986;6.282;2023-12-22T05:18:40;6.20;99.90
51825;DHT22;37879;52.986;6.282;2023-12-22T05:21:05;6.30;99.90
51825;DHT22;37879;52.986;6.282;2023-12-22T05:23:31;6.30;99.90
51825;DHT22;37879;52.986;6.282;2023-12-22T05:25:58;6.40;99.90
51825;DHT22;37879;52.986;6.282;2023-12-22T05:28:23;6.40;99.90
51825;DHT22;37879;52.986;6.282;2023-12-22T05:30:49;6.40;99.90
51825;DHT22;37879;52.986;6.282;2023-12-22T05:33:15;6.30;99.90
51825;DHT22;37879;52.986;6.282;2023-12-22T05:35:41;6.30;99.90
51825;DHT22;37879;52.986;6.282;2023-12-22T05:38:06;6.30;99.90
51825;DHT22;37879;52.986;6.282;2023-12-22T05:40:32;6.30;99.90
51825;DHT22;37879;52.986;6.282;2023-12-22T05:42:58;6.30;99.90
51825;DHT22;37879;52.986;6.282;2023-12-22T05:45:24;6.30;99.90
51825;DHT22;37879;52.986;6.282;2023-12-22T05:47:50;6.30;99.90
51825;DHT22;37879;52.986;6.282;2023-12-22T05:50:16;6.30;99.90
51825;DHT22;37879;52.986;6.282;2023-12-22T05:52:42;6.30;99.90
51825;DHT22;37879;52.986;6.282;2023-12-22T05:55:11;6.30;99.90
51825;DHT22;37879;52.986;6.282;2023-12-22T05:57:37;6.20;99.90
51825;DHT22;37879;52.986;6.282;2023-12-22T06:00:04;6.30;99.90
51825;DHT22;37879;52.986;6.282;2023-12-22T06:02:33;6.30;99.90
51825;DHT22;37879;52.986;6.282;2023-12-22T06:04:59;6.30;99.90
51825;DHT22;37879;52.986;6.282;2023-12-22T06:07:26;6.40;99.90
51825;DHT22;37879;52.986;6.282;2023-12-22T06:09:52;6.40;99.90
51825;DHT22;37879;52.986;6.282;2023-12-22T06:12:18;6.40;99.90
51825;DHT22;37879;52.986;6.282;2023-12-22T06:14:43;6.40;99.90
51825;DHT22;37879;52.986;6.282;2023-12-22T06:17:09;6.40;99.90
51825;DHT22;37879;52.986;6.282;2023-12-22T06:19:38;6.40;99.90
51825;DHT22;37879;52.986;6.282;2023-12-22T06:22:04;6.40;99.90
51825;DHT22;37879;52.986;6.282;2023-12-22T06:24:31;6.40;99.90
51825;DHT22;37879;52.986;6.282;2023-12-22T06:26:57;6.40;99.90
51825;DHT22;37879;52.986;6.282;2023-12-22T06:29:22;6.30;99.90
51825;DHT22;37879;52.986;6.282;2023-12-22T06:31:48;6.30;99.90
51825;DHT22;37879;52.986;6.282;2023-12-22T06:34:16;6.30;99.90
51825;DHT22;37879;52.986;6.282;2023-12-22T06:36:42;6.30;99.90
51825;DHT22;37879;52.986;6.282;2023-12-22T06:39:08;6.30;99.90
51825;DHT22;37879;52.986;6.282;2023-12-22T06:41:34;6.30;99.90
51825;DHT22;37879;52.986;6.282;2023-12-22T06:44:00;6.20;99.90
51825;DHT22;37879;52.986;6.282;2023-12-22T06:46:26;6.20;99.90
51825;DHT22;37879;52.986;6.282;2023-12-22T06:48:53;6.30;99.90
51825;DHT22;37879;52.986;6.282;2023-12-22T06:53:49;6.30;99.90
51825;DHT22;37879;52.986;6.282;2023-12-22T06:56:34;6.30;99.90
51825;DHT22;37879;52.986;6.282;2023-12-22T06:59:00;6.30;99.90
51825;DHT22;37879;52.986;6.282;2023-12-22T07:01:29;6.30;99.90
51825;DHT22;37879;52.986;6.282;2023-12-22T07:03:57;6.30;99.90
51825;DHT22;37879;52.986;6.282;2023-12-22T07:06:24;6.30;99.90
51825;DHT22;37879;52.986;6.282;2023-12-22T07:11:38;6.30;99.90
51825;DHT22;37879;52.986;6.282;2023-12-22T07:14:04;6.30;99.90
51825;DHT22;37879;52.986;6.282;2023-12-22T07:16:30;6.30;99.90
51825;DHT22;37879;52.986;6.282;2023-12-22T07:18:55;6.30;99.90
51825;DHT22;37879;52.986;6.282;2023-12-22T07:21:21;6.30;99.90
51825;DHT22;37879;52.986;6.282;2023-12-22T07:23:47;6.30;99.90
51825;DHT22;37879;52.986;6.282;2023-12-22T07:26:12;6.20;99.90
51825;DHT22;37879;52.986;6.282;2023-12-22T07:28:38;6.20;99.90
51825;DHT22;37879;52.986;6.282;2023-12-22T07:31:04;6.20;99.90
51825;DHT22;37879;52.986;6.282;2023-12-22T07:33:31;6.30;99.90
51825;DHT22;37879;52.986;6.282;2023-12-22T07:35:56;6.20;99.90
51825;DHT22;37879;52.986;6.282;2023-12-22T07:38:22;6.20;99.90
51825;DHT22;37879;52.986;6.282;2023-12-22T07:40:48;6.20;99.90
51825;DHT22;37879;52.986;6.282;2023-12-22T07:43:15;6.20;99.90
51825;DHT22;37879;52.986;6.282;2023-12-22T07:45:41;6.10;99.90
51825;DHT22;37879;52.986;6.282;2023-12-22T07:48:06;6.20;99.90
51825;DHT22;37879;52.986;6.282;2023-12-22T07:50:33;6.20;99.90
51825;DHT22;37879;52.986;6.282;2023-12-22T07:52:58;6.20;99.90
51825;DHT22;37879;52.986;6.282;2023-12-22T07:55:24;6.20;99.90
51825;DHT22;37879;52.986;6.282;2023-12-22T07:57:51;6.20;99.90
51825;DHT22;37879;52.986;6.282;2023-12-22T08:00:17;6.30;99.90
51825;DHT22;37879;52.986;6.282;2023-12-22T08:02:43;6.30;99.90
51825;DHT22;37879;52.986;6.282;2023-12-22T08:05:09;6.30;99.90
51825;DHT22;37879;52.986;6.282;2023-12-22T08:07:35;6.40;99.90
51825;DHT22;37879;52.986;6.282;2023-12-22T08:10:02;6.40;99.90
51825;DHT22;37879;52.986;6.282;2023-12-22T08:12:28;6.40;99.90
51825;DHT22;37879;52.986;6.282;2023-12-22T08:14:54;6.40;99.90
51825;DHT22;37879;52.986;6.282;2023-12-22T08:17:20;6.40;99.90
51825;DHT22;37879;52.986;6.282;2023-12-22T08:19:45;6.50;99.90
51825;DHT22;37879;52.986;6.282;2023-12-22T08:22:11;6.50;99.90
51825;DHT22;37879;52.986;6.282;2023-12-22T08:24:40;6.50;99.90
51825;DHT22;37879;52.986;6.282;2023-12-22T08:27:07;6.50;99.90
51825;DHT22;37879;52.986;6.282;2023-12-22T08:29:33;6.50;99.90
51825;DHT22;37879;52.986;6.282;2023-12-22T08:31:59;6.50;99.90
51825;DHT22;37879;52.986;6.282;2023-12-22T08:34:26;6.50;99.90
51825;DHT22;37879;52.986;6.282;2023-12-22T08:36:52;6.50;99.90
51825;DHT22;37879;52.986;6.282;2023-12-22T08:39:17;6.50;99.90
51825;DHT22;37879;52.986;6.282;2023-12-22T08:41:44;6.40;99.90
51825;DHT22;37879;52.986;6.282;2023-12-22T08:44:10;6.40;99.90
51825;DHT22;37879;52.986;6.282;2023-12-22T08:46:36;6.30;99.90
51825;DHT22;37879;52.986;6.282;2023-12-22T08:49:02;6.30;99.90
51825;DHT22;37879;52.986;6.282;2023-12-22T08:51:28;6.20;99.90
51825;DHT22;37879;52.986;6.282;2023-12-22T08:53:55;6.10;99.90
51825;DHT22;37879;52.986;6.282;2023-12-22T08:56:24;6.00;99.90
51825;DHT22;37879;52.986;6.282;2023-12-22T08:58:54;6.00;99.90
51825;DHT22;37879;52.986;6.282;2023-12-22T09:01:25;6.00;99.90
51825;DHT22;37879;52.986;6.282;2023-12-22T09:03:51;6.00;99.90
51825;DHT22;37879;52.986;6.282;2023-12-22T09:06:22;6.00;99.90
51825;DHT22;37879;52.986;6.282;2023-12-22T09:08:48;6.00;99.90
51825;DHT22;37879;52.986;6.282;2023-12-22T09:11:17;6.00;99.90
51825;DHT22;37879;52.986;6.282;2023-12-22T09:13:43;6.00;99.90
51825;DHT22;37879;52.986;6.282;2023-12-22T09:16:10;6.00;99.90
51825;DHT22;37879;52.986;6.282;2023-12-22T09:18:36;6.10;99.90
51825;DHT22;37879;52.986;6.282;2023-12-22T09:21:02;6.00;99.90
51825;DHT22;37879;52.986;6.282;2023-12-22T09:23:28;6.00;99.90
51825;DHT22;37879;52.986;6.282;2023-12-22T09:25:54;5.90;99.90
51825;DHT22;37879;52.986;6.282;2023-12-22T09:28:20;5.90;99.90
51825;DHT22;37879;52.986;6.282;2023-12-22T09:30:46;5.90;99.90
51825;DHT22;37879;52.986;6.282;2023-12-22T09:33:12;5.90;99.90
51825;DHT22;37879;52.986;6.282;2023-12-22T09:35:38;5.90;99.90
51825;DHT22;37879;52.986;6.282;2023-12-22T09:38:10;6.00;99.90
51825;DHT22;37879;52.986;6.282;2023-12-22T09:40:36;6.00;99.90
51825;DHT22;37879;52.986;6.282;2023-12-22T09:43:02;6.10;99.90
51825;DHT22;37879;52.986;6.282;2023-12-22T09:45:30;6.10;99.90
51825;DHT22;37879;52.986;6.282;2023-12-22T09:47:59;6.10;99.90
51825;DHT22;37879;52.986;6.282;2023-12-22T09:50:28;6.10;99.90
51825;DHT22;37879;52.986;6.282;2023-12-22T09:52:55;6.10;99.90
51825;DHT22;37879;52.986;6.282;2023-12-22T09:55:22;6.10;99.90
51825;DHT22;37879;52.986;6.282;2023-12-22T09:57:49;6.10;99.90
51825;DHT22;37879;52.986;6.282;2023-12-22T10:00:15;6.10;99.90
51825;DHT22;37879;52.986;6.282;2023-12-22T10:02:43;6.10;99.90
51825;DHT22;37879;52.986;6.282;2023-12-22T10:05:11;6.20;99.90
51825;DHT22;37879;52.986;6.282;2023-12-22T10:07:42;6.20;99.90
51825;DHT22;37879;52.986;6.282;2023-12-22T10:10:10;6.30;99.90
51825;DHT22;37879;52.986;6.282;2023-12-22T10:12:38;6.30;99.90
51825;DHT22;37879;52.986;6.282;2023-12-22T10:15:08;6.30;99.90
51825;DHT22;37879;52.986;6.282;2023-12-22T10:17:34;6.30;99.90
51825;DHT22;37879;52.986;6.282;2023-12-22T10:20:01;6.30;99.90
51825;DHT22;37879;52.986;6.282;2023-12-22T10:22:28;6.30;99.90
51825;DHT22;37879;52.986;6.282;2023-12-22T10:24:54;6.30;99.90
51825;DHT22;37879;52.986;6.282;2023-12-22T10:27:20;6.30;99.90
51825;DHT22;37879;52.986;6.282;2023-12-22T10:29:55;6.30;99.90
51825;DHT22;37879;52.986;6.282;2023-12-22T10:32:21;6.30;99.90
51825;DHT22;37879;52.986;6.282;2023-12-22T10:34:48;6.30;99.90
51825;DHT22;37879;52.986;6.282;2023-12-22T10:37:16;6.40;99.90
51825;DHT22;37879;52.986;6.282;2023-12-22T10:39:42;6.40;99.90
51825;DHT22;37879;52.986;6.282;2023-12-22T10:42:08;6.40;99.90
51825;DHT22;37879;52.986;6.282;2023-12-22T10:44:34;6.40;99.90
51825;DHT22;37879;52.986;6.282;2023-12-22T10:47:00;6.40;99.90
51825;DHT22;37879;52.986;6.282;2023-12-22T10:49:26;6.40;99.90
51825;DHT22;37879;52.986;6.282;2023-12-22T10:51:52;6.40;99.90
51825;DHT22;37879;52.986;6.282;2023-12-22T10:54:19;6.40;99.90
51825;DHT22;37879;52.986;6.282;2023-12-22T10:56:45;6.40;99.90
51825;DHT22;37879;52.986;6.282;2023-12-22T10:59:10;6.40;99.90
51825;DHT22;37879;52.986;6.282;2023-12-22T11:01:37;6.40;99.90
51825;DHT22;37879;52.986;6.282;2023-12-22T11:04:07;6.50;99.90
51825;DHT22;37879;52.986;6.282;2023-12-22T11:06:37;6.50;99.90
51825;DHT22;37879;52.986;6.282;2023-12-22T11:09:06;6.50;99.90
51825;DHT22;37879;52.986;6.282;2023-12-22T11:11:38;6.50;99.90
51825;DHT22;37879;52.986;6.282;2023-12-22T11:14:04;6.60;99.90
51825;DHT22;37879;52.986;6.282;2023-12-22T11:16:32;6.60;99.90
51825;DHT22;37879;52.986;6.282;2023-12-22T11:19:00;6.60;99.90
51825;DHT22;37879;52.986;6.282;2023-12-22T11:21:26;6.60;99.90
51825;DHT22;37879;52.986;6.282;2023-12-22T11:23:53;6.70;99.90
51825;DHT22;37879;52.986;6.282;2023-12-22T11:26:21;6.70;99.90
51825;DHT22;37879;52.986;6.282;2023-12-22T11:28:48;6.80;99.90
51825;DHT22;37879;52.986;6.282;2023-12-22T11:31:14;6.80;99.90
51825;DHT22;37879;52.986;6.282;2023-12-22T11:33:50;6.80;99.90
51825;DHT22;37879;52.986;6.282;2023-12-22T11:36:17;6.80;99.90
51825;DHT22;37879;52.986;6.282;2023-12-22T11:38:46;6.90;99.90
51825;DHT22;37879;52.986;6.282;2023-12-22T11:41:33;6.90;99.90
51825;DHT22;37879;52.986;6.282;2023-12-22T11:44:01;7.00;99.90
51825;DHT22;37879;52.986;6.282;2023-12-22T11:46:29;6.90;99.90
51825;DHT22;37879;52.986;6.282;2023-12-22T11:48:56;6.90;99.90
51825;DHT22;37879;52.986;6.282;2023-12-22T11:51:22;6.90;99.90
51825;DHT22;37879;52.986;6.282;2023-12-22T11:53:48;7.00;99.90
51825;DHT22;37879;52.986;6.282;2023-12-22T11:56:13;6.90;99.90
51825;DHT22;37879;52.986;6.282;2023-12-22T11:58:48;6.90;99.90
51825;DHT22;37879;52.986;6.282;2023-12-22T12:01:25;6.90;99.90
51825;DHT22;37879;52.986;6.282;2023-12-22T12:03:52;6.80;99.90
51825;DHT22;37879;52.986;6.282;2023-12-22T12:08:56;6.80;99.90
51825;DHT22;37879;52.986;6.282;2023-12-22T12:11:23;6.80;99.90
51825;DHT22;37879;52.986;6.282;2023-12-22T12:13:50;6.30;99.90
51825;DHT22;37879;52.986;6.282;2023-12-22T12:16:20;6.90;99.90
51825;DHT22;37879;52.986;6.282;2023-12-22T12:18:50;6.90;99.90
51825;DHT22;37879;52.986;6.282;2023-12-22T12:21:18;6.90;99.90
51825;DHT22;37879;52.986;6.282;2023-12-22T12:23:44;6.90;99.90
51825;DHT22;37879;52.986;6.282;2023-12-22T12:26:11;6.90;99.90
51825;DHT22;37879;52.986;6.282;2023-12-22T12:28:37;6.90;99.90
51825;DHT22;37879;52.986;6.282;2023-12-22T12:31:08;6.90;99.90
51825;DHT22;37879;52.986;6.282;2023-12-22T12:33:35;6.90;99.90
51825;DHT22;37879;52.986;6.282;2023-12-22T12:36:02;6.90;99.90
51825;DHT22;37879;52.986;6.282;2023-12-22T12:38:59;6.90;99.90
51825;DHT22;37879;52.986;6.282;2023-12-22T12:41:31;7.00;99.90
51825;DHT22;37879;52.986;6.282;2023-12-22T12:43:58;6.90;99.90
51825;DHT22;37879;52.986;6.282;2023-12-22T12:46:34;6.90;99.90
51825;DHT22;37879;52.986;6.282;2023-12-22T12:49:08;6.90;99.90
51825;DHT22;37879;52.986;6.282;2023-12-22T12:51:42;6.90;99.90
51825;DHT22;37879;52.986;6.282;2023-12-22T12:54:10;6.90;99.90
51825;DHT22;37879;52.986;6.282;2023-12-22T12:59:10;6.90;99.90
51825;DHT22;37879;52.986;6.282;2023-12-22T13:01:44;6.80;99.90
51825;DHT22;37879;52.986;6.282;2023-12-22T13:04:10;6.80;99.90
51825;DHT22;37879;52.986;6.282;2023-12-22T13:06:46;6.80;99.90
51825;DHT22;37879;52.986;6.282;2023-12-22T13:09:12;6.80;99.90
51825;DHT22;37879;52.986;6.282;2023-12-22T13:11:41;6.80;99.90
51825;DHT22;37879;52.986;6.282;2023-12-22T13:14:12;6.80;99.90
51825;DHT22;37879;52.986;6.282;2023-12-22T13:16:40;6.80;99.90
51825;DHT22;37879;52.986;6.282;2023-12-22T13:19:06;6.80;99.90
51825;DHT22;37879;52.986;6.282;2023-12-22T13:21:32;6.90;99.90
51825;DHT22;37879;52.986;6.282;2023-12-22T13:24:15;6.90;99.90
51825;DHT22;37879;52.986;6.282;2023-12-22T13:26:44;6.80;99.90
51825;DHT22;37879;52.986;6.282;2023-12-22T13:29:11;6.80;99.90
51825;DHT22;37879;52.986;6.282;2023-12-22T13:31:39;6.80;99.90
51825;DHT22;37879;52.986;6.282;2023-12-22T13:34:11;6.80;99.90
51825;DHT22;37879;52.986;6.282;2023-12-22T13:36:37;6.80;99.90
51825;DHT22;37879;52.986;6.282;2023-12-22T13:39:05;6.80;99.90
51825;DHT22;37879;52.986;6.282;2023-12-22T13:41:42;6.90;99.90
51825;DHT22;37879;52.986;6.282;2023-12-22T13:44:11;6.90;99.90
51825;DHT22;37879;52.986;6.282;2023-12-22T13:46:37;7.00;99.90
51825;DHT22;37879;52.986;6.282;2023-12-22T13:49:10;7.00;99.90
51825;DHT22;37879;52.986;6.282;2023-12-22T13:51:45;6.90;99.90
51825;DHT22;37879;52.986;6.282;2023-12-22T13:54:13;6.90;99.90
51825;DHT22;37879;52.986;6.282;2023-12-22T13:56:39;6.90;99.90
51825;DHT22;37879;52.986;6.282;2023-12-22T13:59:11;6.80;99.90
51825;DHT22;37879;52.986;6.282;2023-12-22T14:01:37;6.80;99.90
51825;DHT22;37879;52.986;6.282;2023-12-22T14:04:03;6.70;99.90
51825;DHT22;37879;52.986;6.282;2023-12-22T14:06:29;6.70;99.90
51825;DHT22;37879;52.986;6.282;2023-12-22T14:08:55;6.70;99.90
51825;DHT22;37879;52.986;6.282;2023-12-22T14:11:22;6.60;99.90
51825;DHT22;37879;52.986;6.282;2023-12-22T14:13:48;6.70;99.90
51825;DHT22;37879;52.986;6.282;2023-12-22T14:16:14;6.60;99.90
51825;DHT22;37879;52.986;6.282;2023-12-22T14:18:43;6.60;99.90
51825;DHT22;37879;52.986;6.282;2023-12-22T14:21:09;6.50;99.90
51825;DHT22;37879;52.986;6.282;2023-12-22T14:23:34;6.50;99.90
51825;DHT22;37879;52.986;6.282;2023-12-22T14:26:00;6.50;99.90
51825;DHT22;37879;52.986;6.282;2023-12-22T14:28:26;6.50;99.90
51825;DHT22;37879;52.986;6.282;2023-12-22T14:30:53;6.50;99.90
51825;DHT22;37879;52.986;6.282;2023-12-22T14:33:19;6.50;99.90
51825;DHT22;37879;52.986;6.282;2023-12-22T14:35:44;6.50;99.90
51825;DHT22;37879;52.986;6.282;2023-12-22T14:38:10;4.90;99.90
51825;DHT22;37879;52.986;6.282;2023-12-22T14:40:36;6.50;99.90
51825;DHT22;37879;52.986;6.282;2023-12-22T14:43:01;6.50;99.90
51825;DHT22;37879;52.986;6.282;2023-12-22T14:45:28;6.50;99.90
51825;DHT22;37879;52.986;6.282;2023-12-22T14:47:53;6.40;99.90
51825;DHT22;37879;52.986;6.282;2023-12-22T14:50:19;6.50;99.90
51825;DHT22;37879;52.986;6.282;2023-12-22T14:52:45;6.40;99.90
51825;DHT22;37879;52.986;6.282;2023-12-22T14:55:11;6.40;99.90
51825;DHT22;37879;52.986;6.282;2023-12-22T14:57:37;6.40;99.90
51825;DHT22;37879;52.986;6.282;2023-12-22T15:00:04;6.40;99.90
51825;DHT22;37879;52.986;6.282;2023-12-22T15:02:30;6.40;99.90
51825;DHT22;37879;52.986;6.282;2023-12-22T15:04:55;6.40;99.90
51825;DHT22;37879;52.986;6.282;2023-12-22T15:07:21;6.40;99.90
51825;DHT22;37879;52.986;6.282;2023-12-22T15:09:47;6.50;99.90
51825;DHT22;37879;52.986;6.282;2023-12-22T15:12:14;6.50;99.90
51825;DHT22;37879;52.986;6.282;2023-12-22T15:14:47;6.50;99.90
51825;DHT22;37879;52.986;6.282;2023-12-22T15:17:13;6.50;99.90
51825;DHT22;37879;52.986;6.282;2023-12-22T15:19:40;6.50;99.90
51825;DHT22;37879;52.986;6.282;2023-12-22T15:22:10;6.50;99.90
51825;DHT22;37879;52.986;6.282;2023-12-22T15:24:43;6.60;99.90
51825;DHT22;37879;52.986;6.282;2023-12-22T15:27:10;6.60;99.90
51825;DHT22;37879;52.986;6.282;2023-12-22T15:29:35;6.60;99.90
51825;DHT22;37879;52.986;6.282;2023-12-22T15:32:01;6.60;99.90
51825;DHT22;37879;52.986;6.282;2023-12-22T15:34:28;6.60;99.90
51825;DHT22;37879;52.986;6.282;2023-12-22T15:36:53;6.60;99.90
51825;DHT22;37879;52.986;6.282;2023-12-22T15:39:19;6.60;99.90
51825;DHT22;37879;52.986;6.282;2023-12-22T15:41:47;6.70;99.90
51825;DHT22;37879;52.986;6.282;2023-12-22T15:44:12;6.60;99.90
51825;DHT22;37879;52.986;6.282;2023-12-22T15:46:38;6.70;99.90
51825;DHT22;37879;52.986;6.282;2023-12-22T15:49:04;6.70;99.90
51825;DHT22;37879;52.986;6.282;2023-12-22T15:51:30;6.70;99.90
51825;DHT22;37879;52.986;6.282;2023-12-22T15:53:55;6.70;99.90
51825;DHT22;37879;52.986;6.282;2023-12-22T15:56:21;6.70;99.90
51825;DHT22;37879;52.986;6.282;2023-12-22T15:58:47;6.70;99.90